48Ťme Rallye National de la Giraglia
Championnat de France des Rallyes 2Ťme Division
1 2 NAVARRA Francois-Frederic/TYRAN Mathieu Ford Fiesta A 8W 13:45,5
2 1 TROJANI Pascal/VESPERINI Jean-Noel CitroŽn Ds3 A 8W 13:48,3 +00:02,8 +00:02,8
3 3 ALERINI Paul/VERDURI Olivier Ford Fiesta A 8W 13:55,1 +00:09,6 +00:06,8
4 7 MANZAGOL Jean-Marc/PATRONE Etienne Ford Fiesta R 5 14:01,0 +00:15,5 +00:05,9
5 6 LEANDRI Jean-Mathieu/GORGUILO Anthony Skoda Fabia R 5 14:05,7 +00:20,2 +00:04,7
6 12 GIORGI Fabrice/BEILL RaphaŽl Skoda Fabia R 5 14:57,3 +01:11,8 +00:51,6
7 60 FRAYMOUTH FranÁois/FELICELLI Romain Peugeot 208 R 2 15:01,6 +01:16,1 +00:04,3
8 78 BALDRICHI Henry/CADET Jean-Philippe CitroŽn Saxo F2 13 15:08,0 +01:22,5 +00:06,4
9 36 JAUMON Lionel/ROQUE Cyril Renault Clio 3 Rs F2 14 15:08,7 +01:23,2 +00:00,7
10 18 SANTINI Renaud/OTTOBRINI Thomas CitroŽn Ds3 R 3 15:12,5 +01:27,0 +00:03,8
11 5 SIMONETTI Robert/SIMONETTI Celia CitroŽn Ds3 A 8W 15:14,2 +01:28,7 +00:01,7
12 32 FLORI Jean-Pierre/GARCIA Dann Renault Clio Ragnotti F2 14 15:19,3 +01:33,8 +00:05,1
13 61 MICHELI Hugo/RAFFAELLI Yoann Peugeot 208 R 2 15:23,8 +01:38,3 +00:04,5
14 77 GANDOLFI Anthony/FINOCCHIARO Sťbastien CitroŽn Saxo F2 13 15:28,6 +01:43,1 +00:04,8
15 10 VILLORESI Christian/GIUDICELLI Cyril Skoda Fabia R 5 15:31,1 +01:45,6 +00:02,5
16 71 MUSELLI Jean-Philippe/BACCHIOLELLI Jean-Baptiste Renault Clio FN 3 15:33,6 +01:48,1 +00:02,5
17 24 VILLARET Benjamin/OBRECHT Justine Renault Clio R3 R 3 15:38,9 +01:53,4 +00:05,3
18 19 DEFENDINI Romain/GHERARDI Gťrard CitroŽn Ds3 R 3 15:45,3 +01:59,8 +00:06,4
19 33 CAVILLAC Franck/CORSI Frťdťric Renault Clio Rs F2 14 15:50,6 +02:05,1 +00:05,3
20 21 CHIARONI Pascal/SANTINI Cťdric Renault Clio R3 Max R 3 15:51,3 +02:05,8 +00:00,7
21 73 ARAGNEAU Philippe/MAZOTTI Francis Renault Clio FN 3 15:53,8 +02:08,3 +00:02,5
22 86 CASALE Julien/MORA Nicolas CitroŽn Saxo Vts FA 6 15:58,2 +02:12,7 +00:04,4
23 9 POLIDORI Frťdťric/GOIA Laurent Ford Fiesta R 5 15:58,6 +02:13,1 +00:00,4
24 27 ROSSI Yannick/VOLPEI Baptiste Mitsubishi Evolution 9 N 4 15:59,9 +02:14,4 +00:01,3
25 85 PERETTI Myriam/SALINI Laura Peugeot 106 FA 6 16:02,8 +02:17,3 +00:02,9
26 31 GREGORY Ugo/GREGORY Coralie Renault Clio Rs F2 14 16:05,5 +02:20,0 +00:02,7
27 38 RICO Michel/RICO Benjamin BMW --- F2 14 16:08,5 +02:23,0 +00:03,0
28 63 AGOSTINI Lucien/AGOSTINI Guillaume Peugeot 208 R 2B 16:11,0 +02:25,5 +00:02,5
29 80 DIFEO Josť/DIFEO Julien CitroŽn C2 F2 13 16:14,5 +02:29,0 +00:03,5
30 50 FERRARI Cťdric/LAPINA Michela Peugeot 106 S16 FA 6K 16:14,9 +02:29,4 +00:00,4
31 62 SOREDA Pierre/BONIFET Julien CitroŽn C2 R2 Max R 2 16:16,3 +02:30,8 +00:01,4
32 64 MAESTRACCI FranÁois/CASANOVA Sťbastien Peugeot 208 R 2 16:20,0 +02:34,5 +00:03,7
33 79 FRANCISCI Yannick/VINCIGUERRA Lisa-Marie Peugeot 106 S16 F2 13 16:22,9 +02:37,4 +00:02,9
34 34 VANGIONI Francesco/THIERS Julien Renault Clio 3 Rs F2 14 16:23,4 +02:37,9 +00:00,5
35 51 MARIANI Anthony/PIEVE Laura Peugeot 206 Xs FA 6K 16:23,7 +02:38,2 +00:00,3
36 16 BONEL Antony/MANENT Roselyne Opel Speedster Turbo GT 10 16:29,1 +02:43,6 +00:05,4
37 53 GHELARDINI Francois-Marie/ROCCA SERRA Laury Peugeot 206 Xs FA 6K 16:29,7 +02:44,2 +00:00,6
38 57 BRAZ Paulo/SCICOLONE Edouard CitroŽn C2 FA 6K 16:29,9 +02:44,4 +00:00,2
39 54 COMOLE Lionel/DINI Gilbert Peugeot 106 S16 A 6K 16:31,7 +02:46,2 +00:01,8
40 74 DONATI Xavier/CIAVALDINI France Renault Clio Williams FN 3 16:32,0 +02:46,5 +00:00,3
41 28 AGOSTINI Anthony/ROYER JťrŰme Renault Megane N 4 16:34,4 +02:48,9 +00:02,4
42 81 CLAUDE Christophe/DELATTRE Judicael CitroŽn C2 F2 13 16:35,0 +02:49,5 +00:00,6
43 70 FABRA Jťrťmy/PONTIER Numa Renault Clio 16S FA 7 16:35,9 +02:50,4 +00:00,9
44 66 ANFRIANI Paul-Etienne/RICOVERI Mallaury CitroŽn C2 R 2B 16:37,7 +02:52,2 +00:01,8
45 23 AGOSTINI Quentin/BARRAL Florian Peugeot 207 Rc R 3 16:50,0 +03:04,5 +00:12,3
46 15 ROGNONI Daniel/BEAULIEU Noelise Porsche 911 GT 10 16:50,2 +03:04,7 +00:00,2
47 26 BORT Julien/ZAVARSKY Alexy Renault Clio R3 Max R 3 16:52,5 +03:07,0 +00:02,3
48 55 MARTELLI Cyril/BRUN Pierre-Marie Peugeot 206 Xs FA 6K 16:53,6 +03:08,1 +00:01,1
49 98 NEGRI Jean-Michel/NEGRI Michel Peugeot 106 S16 FN 2 16:57,9 +03:12,4 +00:04,3
50 4 MICHELI Joseph/MICHELI Luna-Stella Ford Fiesta A 8W 17:03,7 +03:18,2 +00:05,8
51 89 NAPOLI MELIO MichaŽl/BERNARDI Dominique CitroŽn C2 FA 6 17:04,9 +03:19,4 +00:01,2
52 22 ETTORI Jean-Dominique/GUERRIERI Patrick CitroŽn Ds3 R 3 17:09,0 +03:23,5 +00:04,1
53 100 BALDI Pierre/MINICUCCI Manon Peugeot 106 F2 12 17:20,4 +03:34,9 +00:11,4
54 93 MARIINI MichaŽl/REAL Thibaut CitroŽn Saxo Vts FN 2 17:20,5 +03:35,0 +00:00,1
55 43 CESARI Pierre-Dominique/BENETEAU Leria Peugeot 205 Gti F2 14 17:22,1 +03:36,6 +00:01,6
56 17 ALEGRE Francis/MURATI Laura BMW 325I FA 8 17:26,4 +03:40,9 +00:04,3
57 30 LAUZERTE Alain/BARBE Isabelle Renault Megane N 4 17:29,1 +03:43,6 +00:02,7
58 67 DE MEYER Jean-Michel/FRATTI Eric Peugeot 208 R 2 17:31,7 +03:46,2 +00:02,6
59 49 FIGARI Luca/FIGARI Morgan Renault Clio Super 1600 FA 6K 17:35,1 +03:49,6 +00:03,4
60 101 GOURIOU LoÔc/SANTINI Marie-Angelique Peugeot 106 Rallye F2 12 17:39,8 +03:54,3 +00:04,7
61 45 VANGIONI Graziano/BERTIN-MAURICE Kťvin Renault Clio Rs F2 14 17:45,3 +03:59,8 +00:05,5
62 95 BERNOUS Bouchta/MARTINI Andrea CitroŽn Saxo Vts FN 2 17:49,1 +04:03,6 +00:03,8
63 105 NICOLI Gťrard/GALTIERI Marie-Flore CitroŽn Ax Sport FN 1 17:50,7 +04:05,2 +00:01,6
64 56 BALESTRACCI Stťphanie/CHIAPPE Patrick Peugeot 206 Xs FA 6K 17:58,7 +04:13,2 +00:08,0
65 97 BORSELLI Charles/MANZONI Cťdric Peugeot 106 FN 2 18:10,4 +04:24,9 +00:11,7
66 29 LIMELETTE Marc/PONSOT Francois-Dominique Ford Escort Cosworth FN 4 18:29,9 +04:44,4 +00:19,5
67 82 DAMIANI Marcel/D'ANGELO Enzo CitroŽn Saxo F2 13 18:34,4 +04:48,9 +00:04,5
68 104 BIAGGI Florian/ESCACH Matthieu Peugeot 106 S16 N 2S 18:40,5 +04:55,0 +00:06,1
69 44 MORGANTI Antoine/BIAGGI Yves Peugeot 205 Gti F2 14 19:23,4 +05:37,9 +00:42,9
70 102 TROMBI Philippe/NICOLAI MichaŽl Peugeot 106 Xsi F2 12 19:55,5 +06:10,0 +00:32,1
71 14 BIANCO Dominique/BERNACCHI Francois-Jean Peugeot 207 S2000 A 7S 21:30,9 +07:45,4 +01:35,4
72 11 ANTONINI Louis/ESCARTEFIGUE Jules Ford Fiesta R 5 3:16:55,4 +3:03:09,9 +2:55:24,5
73 92 MICAELLI Alexandre/FRANCOIS Adrien CitroŽn Saxo Vts FN 2 3:33:59,5 +3:20:14,0 +17:04,1
74 69 PADOVANI Anthony/PADOVANI Renť CitroŽn C2 R2 Max R 2 3:34:19,0 +3:20:33,5 +00:19,5
Clt Equipage Voiture Gr/Cl Temps Ecart 1er Ecart préc. Catégories
Commentaires: © PatricK Soft  
(Temps forfaitaires=couleur bleue)
Classés:74

Epreuve: Groupe: Catégorie:

 
Retour
Classement aprŤs ES3-Macinaggio - Ersa 1 (11.000 km)